createdAt,value
2019-03-05T00:00:30.862Z,7.13
2019-03-05T00:01:30.859Z,7.12
2019-03-05T00:02:30.860Z,7.13
2019-03-05T00:03:30.834Z,7.13
2019-03-05T00:04:30.830Z,7.09
2019-03-05T00:05:30.840Z,7.12
2019-03-05T00:06:30.834Z,7.11
2019-03-05T00:07:30.868Z,7.13
2019-03-05T00:08:30.843Z,7.11
2019-03-05T00:09:30.854Z,7.12
2019-03-05T00:10:30.839Z,7.13
2019-03-05T00:11:30.832Z,7.12
2019-03-05T00:12:30.824Z,7.13
2019-03-05T00:13:30.838Z,7.15
2019-03-05T00:14:30.843Z,7.16
2019-03-05T00:15:30.888Z,7.18
2019-03-05T00:16:30.825Z,7.15
2019-03-05T00:17:30.813Z,7.15
2019-03-05T00:18:30.829Z,7.15
2019-03-05T00:19:30.843Z,7.11
2019-03-05T00:20:30.817Z,7.11
2019-03-05T00:21:31.138Z,7.09
2019-03-05T00:22:30.828Z,7.13
2019-03-05T00:23:30.829Z,7.13
2019-03-05T00:24:30.801Z,7.13
2019-03-05T00:25:30.824Z,7.18
2019-03-05T00:26:30.820Z,7.12
2019-03-05T00:27:30.847Z,7.13
2019-03-05T00:28:30.837Z,7.13
2019-03-05T00:29:30.796Z,7.11
2019-03-05T00:30:30.805Z,7.11
2019-03-05T00:31:30.838Z,7.11
2019-03-05T00:32:30.833Z,7.13
2019-03-05T00:33:33.103Z,7.12
2019-03-05T00:34:30.804Z,7.16
2019-03-05T00:35:30.807Z,7.18
2019-03-05T00:36:30.813Z,7.18
2019-03-05T00:37:30.818Z,7.12
2019-03-05T00:38:30.791Z,7.12
2019-03-05T00:39:30.830Z,7.12
2019-03-05T00:40:30.790Z,7.13
2019-03-05T00:41:30.796Z,7.15
2019-03-05T00:42:30.789Z,7.13
2019-03-05T00:43:31.696Z,7.16
2019-03-05T00:44:30.787Z,7.13
2019-03-05T00:45:30.789Z,7.11
2019-03-05T00:46:30.779Z,7.13
2019-03-05T00:47:30.770Z,7.11
2019-03-05T00:48:30.785Z,7.08
2019-03-05T00:49:30.780Z,7.09
2019-03-05T00:50:30.792Z,7.09
2019-03-05T00:51:30.759Z,7.05
2019-03-05T00:52:30.808Z,7.08
2019-03-05T00:53:30.769Z,7.06
2019-03-05T00:54:30.756Z,7.06
2019-03-05T00:55:30.765Z,7.03
2019-03-05T00:56:30.784Z,7.05
2019-03-05T00:57:30.773Z,6.99
2019-03-05T00:58:30.758Z,6.99
2019-03-05T00:59:30.799Z,7.01
2019-03-05T01:00:30.774Z,6.98
2019-03-05T01:01:30.766Z,6.94
2019-03-05T01:02:30.748Z,6.98
2019-03-05T01:03:30.796Z,6.9
2019-03-05T01:04:30.797Z,6.88
2019-03-05T01:05:30.785Z,6.9
2019-03-05T01:06:30.751Z,6.92
2019-03-05T01:07:30.745Z,6.92
2019-03-05T01:08:30.765Z,6.9
2019-03-05T01:09:30.745Z,6.91
2019-03-05T01:10:30.753Z,6.9
2019-03-05T01:11:30.752Z,6.88
2019-03-05T01:12:30.762Z,6.87
2019-03-05T01:13:30.742Z,6.84
2019-03-05T01:14:30.746Z,6.84
2019-03-05T01:15:30.734Z,6.84
2019-03-05T01:16:30.802Z,6.81
2019-03-05T01:17:30.769Z,6.83
2019-03-05T01:18:30.733Z,6.85
2019-03-05T01:19:30.744Z,6.87
2019-03-05T01:20:30.746Z,6.84
2019-03-05T01:21:30.751Z,6.85
2019-03-05T01:22:30.787Z,6.85
2019-03-05T01:23:30.717Z,6.84
2019-03-05T01:24:30.773Z,6.9
2019-03-05T01:25:30.718Z,6.9
2019-03-05T01:26:30.831Z,6.88
2019-03-05T01:27:30.738Z,6.87
2019-03-05T01:28:30.716Z,6.9
2019-03-05T01:29:30.752Z,6.91
2019-03-05T01:30:30.709Z,6.88
2019-03-05T01:31:30.769Z,6.9
2019-03-05T01:32:30.701Z,6.87
2019-03-05T01:33:30.731Z,6.9
2019-03-05T01:34:30.772Z,6.9
2019-03-05T01:35:30.708Z,6.94
2019-03-05T01:36:30.730Z,6.91
2019-03-05T01:37:30.721Z,6.9
2019-03-05T01:38:30.715Z,6.87
2019-03-05T01:39:30.716Z,6.88
2019-03-05T01:40:30.711Z,6.85
2019-03-05T01:41:30.731Z,6.88
2019-03-05T01:42:30.697Z,6.91
2019-03-05T01:43:30.693Z,6.91
2019-03-05T01:44:30.702Z,6.87
2019-03-05T01:45:30.725Z,6.88
2019-03-05T01:46:30.708Z,6.9
2019-03-05T01:47:30.702Z,6.9
2019-03-05T01:48:31.100Z,6.92
2019-03-05T01:49:30.686Z,6.88
2019-03-05T01:50:30.716Z,6.92
2019-03-05T01:51:30.718Z,6.92
2019-03-05T01:52:30.793Z,6.92
2019-03-05T01:53:30.741Z,6.91
2019-03-05T01:54:30.705Z,6.92
2019-03-05T01:55:30.752Z,6.94
2019-03-05T01:56:30.726Z,6.92
2019-03-05T01:57:30.675Z,6.91
2019-03-05T01:58:30.678Z,6.92
2019-03-05T01:59:30.695Z,6.9
2019-03-05T02:00:30.675Z,6.9
2019-03-05T02:01:30.689Z,6.91
2019-03-05T02:02:30.677Z,6.91
2019-03-05T02:03:30.663Z,6.9
2019-03-05T02:04:30.656Z,6.91
2019-03-05T02:05:30.667Z,6.95
2019-03-05T02:06:30.687Z,6.92
2019-03-05T02:07:30.684Z,6.88
2019-03-05T02:08:30.657Z,6.9
2019-03-05T02:09:30.705Z,6.88
2019-03-05T02:10:30.674Z,6.92
2019-03-05T02:11:30.676Z,6.91
2019-03-05T02:12:30.660Z,6.91
2019-03-05T02:13:30.686Z,6.94
2019-03-05T02:14:30.641Z,6.94
2019-03-05T02:15:30.651Z,6.92
2019-03-05T02:16:30.653Z,6.91
2019-03-05T02:17:30.654Z,6.92
2019-03-05T02:18:30.652Z,6.92
2019-03-05T02:19:30.646Z,6.95
2019-03-05T02:20:30.651Z,6.95
2019-03-05T02:21:30.647Z,6.98
2019-03-05T02:22:30.686Z,6.94
2019-03-05T02:23:30.714Z,6.99
2019-03-05T02:24:30.650Z,6.96
2019-03-05T02:25:30.649Z,6.96
2019-03-05T02:26:30.636Z,6.96
2019-03-05T02:27:31.242Z,6.98
2019-03-05T02:28:30.668Z,6.98
2019-03-05T02:29:30.631Z,7.01
2019-03-05T02:30:30.627Z,7.03
2019-03-05T02:31:30.659Z,7.01
2019-03-05T02:32:30.659Z,7.03
2019-03-05T02:33:30.625Z,7.02
2019-03-05T02:34:30.639Z,7.01
2019-03-05T02:35:30.658Z,7.05
2019-03-05T02:36:30.635Z,7.06
2019-03-05T02:37:30.631Z,7.06
2019-03-05T02:38:30.610Z,7.05
2019-03-05T02:39:30.620Z,7.05
2019-03-05T02:40:30.630Z,7.08
2019-03-05T02:41:30.608Z,7.06
2019-03-05T02:42:30.624Z,7.05
2019-03-05T02:43:30.649Z,7.06
2019-03-05T02:44:30.676Z,7.06
2019-03-05T02:45:31.941Z,7.05
2019-03-05T02:46:30.652Z,7.02
2019-03-05T02:47:30.659Z,7.03
2019-03-05T02:48:30.618Z,7.03
2019-03-05T02:49:30.690Z,7.01
2019-03-05T02:50:30.617Z,7.05
2019-03-05T02:51:30.628Z,7.05
2019-03-05T02:52:30.623Z,7.01
2019-03-05T02:53:30.723Z,7.01
2019-03-05T02:54:30.617Z,7.03
2019-03-05T02:55:30.596Z,7.03
2019-03-05T02:56:30.624Z,7.02
2019-03-05T02:57:30.632Z,7.05
2019-03-05T02:58:30.631Z,7.02
2019-03-05T02:59:30.599Z,7.03
2019-03-05T03:00:30.586Z,7.01
2019-03-05T03:01:30.578Z,7.03
2019-03-05T03:02:30.597Z,7.06
2019-03-05T03:03:30.589Z,7.03
2019-03-05T03:04:30.585Z,7.02
2019-03-05T03:05:30.631Z,6.92
2019-03-05T03:06:30.561Z,6.83
2019-03-05T03:07:30.596Z,6.74
2019-03-05T03:08:30.634Z,6.7
2019-03-05T03:09:30.595Z,6.64
2019-03-05T03:10:30.650Z,6.63
2019-03-05T03:11:30.605Z,6.63
2019-03-05T03:12:30.572Z,6.65
2019-03-05T03:13:30.559Z,6.61
2019-03-05T03:14:30.575Z,6.56
2019-03-05T03:15:30.641Z,6.48
2019-03-05T03:16:30.669Z,6.43
2019-03-05T03:17:30.729Z,6.47
2019-03-05T03:18:30.585Z,6.47
2019-03-05T03:19:30.566Z,6.44
2019-03-05T03:20:30.575Z,6.47
2019-03-05T03:21:30.574Z,6.41
2019-03-05T03:22:30.566Z,6.41
2019-03-05T03:23:30.593Z,6.43
2019-03-05T03:24:30.563Z,6.43
2019-03-05T03:25:30.575Z,6.4
2019-03-05T03:26:30.555Z,6.35
2019-03-05T03:27:30.549Z,6.3
2019-03-05T03:28:30.550Z,6.29
2019-03-05T03:29:30.565Z,6.29
2019-03-05T03:30:30.560Z,6.29
2019-03-05T03:31:30.587Z,6.28
2019-03-05T03:32:30.586Z,6.26
2019-03-05T03:33:30.577Z,6.25
2019-03-05T03:34:30.599Z,6.26
2019-03-05T03:35:30.580Z,6.3
2019-03-05T03:36:30.693Z,6.3
2019-03-05T03:37:30.562Z,6.3
2019-03-05T03:38:30.533Z,6.29
2019-03-05T03:39:30.517Z,6.36
2019-03-05T03:40:30.531Z,6.3
2019-03-05T03:41:30.552Z,6.32
2019-03-05T03:42:30.542Z,6.33
2019-03-05T03:43:30.574Z,6.29
2019-03-05T03:44:30.579Z,6.32
2019-03-05T03:45:30.537Z,6.3
2019-03-05T03:46:30.522Z,6.3
2019-03-05T03:47:30.554Z,6.3
2019-03-05T03:48:30.528Z,6.3
2019-03-05T03:49:30.534Z,6.32
2019-03-05T03:50:30.528Z,6.33
2019-03-05T03:51:30.529Z,6.29
2019-03-05T03:52:30.508Z,6.29
2019-03-05T03:53:30.514Z,6.3
2019-03-05T03:54:30.660Z,6.29
2019-03-05T03:55:30.521Z,6.29
2019-03-05T03:56:30.527Z,6.29
2019-03-05T03:57:30.502Z,6.3
2019-03-05T03:58:30.540Z,6.26
2019-03-05T03:59:30.509Z,6.26
2019-03-05T04:00:30.520Z,6.28
2019-03-05T04:01:30.598Z,6.29
2019-03-05T04:02:30.497Z,6.29
2019-03-05T04:03:30.538Z,6.28
2019-03-05T04:04:30.517Z,6.28
2019-03-05T04:05:30.497Z,6.26
2019-03-05T04:06:30.535Z,6.29
2019-03-05T04:07:30.511Z,6.26
2019-03-05T04:08:30.510Z,6.28
2019-03-05T04:09:30.514Z,6.26
2019-03-05T04:10:30.517Z,6.25
2019-03-05T04:11:30.505Z,6.29
2019-03-05T04:12:30.501Z,6.26
2019-03-05T04:13:30.495Z,6.25
2019-03-05T04:14:30.522Z,6.23
2019-03-05T04:15:31.271Z,6.23
2019-03-05T04:16:30.603Z,6.25
2019-03-05T04:17:30.479Z,6.26
2019-03-05T04:18:30.522Z,6.25
2019-03-05T04:19:30.499Z,6.23
2019-03-05T04:20:30.508Z,6.2
2019-03-05T04:21:30.502Z,6.22
2019-03-05T04:22:30.495Z,6.19
2019-03-05T04:23:30.486Z,6.19
2019-03-05T04:24:30.478Z,6.16
2019-03-05T04:25:30.467Z,6.16
2019-03-05T04:26:30.471Z,6.13
2019-03-05T04:27:30.470Z,6.09
2019-03-05T04:28:30.468Z,6.11
2019-03-05T04:29:30.493Z,6.13
2019-03-05T04:30:30.497Z,6.16
2019-03-05T04:31:30.476Z,6.16
2019-03-05T04:32:30.458Z,6.15
2019-03-05T04:33:30.476Z,6.16
2019-03-05T04:34:30.435Z,6.16
2019-03-05T04:35:30.453Z,6.18
2019-03-05T04:36:30.511Z,6.2
2019-03-05T04:37:30.615Z,6.18
2019-03-05T04:38:30.456Z,6.22
2019-03-05T04:39:30.454Z,6.2
2019-03-05T04:40:30.437Z,6.2
2019-03-05T04:41:30.439Z,6.22
2019-03-05T04:42:30.439Z,6.19
2019-03-05T04:43:30.443Z,6.23
2019-03-05T04:44:30.447Z,6.23
2019-03-05T04:45:30.450Z,6.23
2019-03-05T04:46:30.443Z,6.26
2019-03-05T04:47:30.434Z,6.26
2019-03-05T04:48:30.419Z,6.25
2019-03-05T04:49:30.425Z,6.26
2019-03-05T04:50:30.435Z,6.25
2019-03-05T04:51:30.418Z,6.26
2019-03-05T04:52:30.424Z,6.28
2019-03-05T04:53:30.443Z,6.29
2019-03-05T04:54:30.430Z,6.29
2019-03-05T04:55:30.430Z,6.3
2019-03-05T04:56:30.420Z,6.32
2019-03-05T04:57:30.422Z,6.3
2019-03-05T04:58:30.482Z,6.33
2019-03-05T04:59:30.610Z,6.33
2019-03-05T05:00:30.413Z,6.32
2019-03-05T05:01:30.437Z,6.33
2019-03-05T05:02:30.405Z,6.35
2019-03-05T05:03:30.423Z,6.36
2019-03-05T05:04:30.409Z,6.37
2019-03-05T05:05:30.420Z,6.37
2019-03-05T05:06:30.399Z,6.36
2019-03-05T05:07:30.433Z,6.36
2019-03-05T05:08:30.426Z,6.4
2019-03-05T05:09:30.400Z,6.4
2019-03-05T05:10:30.666Z,6.4
2019-03-05T05:11:30.408Z,6.4
2019-03-05T05:12:30.398Z,6.39
2019-03-05T05:13:30.393Z,6.43
2019-03-05T05:14:30.377Z,6.43
2019-03-05T05:15:30.428Z,6.4
2019-03-05T05:16:30.394Z,6.4
2019-03-05T05:17:30.381Z,6.41
2019-03-05T05:18:30.385Z,6.44
2019-03-05T05:19:30.390Z,6.44
2019-03-05T05:20:30.490Z,6.44
2019-03-05T05:21:30.449Z,6.41
2019-03-05T05:22:30.404Z,6.46
2019-03-05T05:23:30.366Z,6.46
2019-03-05T05:24:30.420Z,6.43
2019-03-05T05:25:30.400Z,6.44
2019-03-05T05:26:30.382Z,6.46
2019-03-05T05:27:30.366Z,6.48
2019-03-05T05:28:30.355Z,6.48
2019-03-05T05:29:30.374Z,6.53
2019-03-05T05:30:30.396Z,6.5
2019-03-05T05:31:30.391Z,6.5
2019-03-05T05:32:30.382Z,6.53
2019-03-05T05:33:30.353Z,6.47
2019-03-05T05:34:30.365Z,6.54
2019-03-05T05:35:30.391Z,6.54
2019-03-05T05:36:30.353Z,6.54
2019-03-05T05:37:30.350Z,6.54
2019-03-05T05:38:30.346Z,6.54
2019-03-05T05:39:30.344Z,6.53
2019-03-05T05:40:30.368Z,6.51
2019-03-05T05:41:30.359Z,6.54
2019-03-05T05:42:30.688Z,6.53
2019-03-05T05:43:30.343Z,6.53
2019-03-05T05:44:30.344Z,6.54
2019-03-05T05:45:30.365Z,6.54
2019-03-05T05:46:30.386Z,6.53
2019-03-05T05:47:30.357Z,6.54
2019-03-05T05:48:30.362Z,6.53
2019-03-05T05:49:30.334Z,6.54
2019-03-05T05:50:30.331Z,6.54
2019-03-05T05:51:30.322Z,6.57
2019-03-05T05:52:30.333Z,6.56
2019-03-05T05:53:30.334Z,6.53
2019-03-05T05:54:30.348Z,6.56
2019-03-05T05:55:30.335Z,6.56
2019-03-05T05:56:30.340Z,6.56
2019-03-05T05:57:30.326Z,6.57
2019-03-05T05:58:30.334Z,6.56
2019-03-05T05:59:30.322Z,6.57
2019-03-05T06:00:30.317Z,6.58
2019-03-05T06:01:30.354Z,6.58
2019-03-05T06:02:30.341Z,6.56
2019-03-05T06:03:30.470Z,6.56
2019-03-05T06:04:30.326Z,6.56
2019-03-05T06:05:30.331Z,6.53
2019-03-05T06:06:30.313Z,6.56
2019-03-05T06:07:30.313Z,6.54
2019-03-05T06:08:30.369Z,6.54
2019-03-05T06:09:30.333Z,6.56
2019-03-05T06:10:30.303Z,6.56
2019-03-05T06:11:30.308Z,6.57
2019-03-05T06:12:30.301Z,6.58
2019-03-05T06:13:30.350Z,6.58
2019-03-05T06:14:30.306Z,6.58
2019-03-05T06:15:30.295Z,6.61
2019-03-05T06:16:30.300Z,6.6
2019-03-05T06:17:30.295Z,6.6
2019-03-05T06:18:30.314Z,6.6
2019-03-05T06:19:30.339Z,6.63
2019-03-05T06:20:30.310Z,6.64
2019-03-05T06:21:30.302Z,6.67
2019-03-05T06:22:30.282Z,6.68
2019-03-05T06:23:30.357Z,6.65
2019-03-05T06:24:30.301Z,6.7
2019-03-05T06:25:30.322Z,6.71
2019-03-05T06:26:30.306Z,6.71
2019-03-05T06:27:30.273Z,6.74
2019-03-05T06:28:30.276Z,6.73
2019-03-05T06:29:30.282Z,6.75
2019-03-05T06:30:30.282Z,6.75
2019-03-05T06:31:30.278Z,6.75
2019-03-05T06:32:30.301Z,6.74
2019-03-05T06:33:30.284Z,6.74
2019-03-05T06:34:30.252Z,6.75
2019-03-05T06:35:30.270Z,6.77
2019-03-05T06:36:30.257Z,6.78
2019-03-05T06:37:33.327Z,6.8
2019-03-05T06:38:30.253Z,6.8
2019-03-05T06:39:30.260Z,6.81
2019-03-05T06:40:30.282Z,6.81
2019-03-05T06:41:30.262Z,6.83
2019-03-05T06:42:30.273Z,6.84
2019-03-05T06:43:30.284Z,6.84
2019-03-05T06:44:30.278Z,6.84
2019-03-05T06:45:30.257Z,6.84
2019-03-05T06:46:30.284Z,6.83
2019-03-05T06:47:30.607Z,6.8
2019-03-05T06:48:30.252Z,6.81
2019-03-05T06:49:30.265Z,6.84
2019-03-05T06:50:30.297Z,6.8
2019-03-05T06:51:30.255Z,6.8
2019-03-05T06:52:30.259Z,6.8
2019-03-05T06:53:30.240Z,6.81
2019-03-05T06:54:30.263Z,6.8
2019-03-05T06:55:30.253Z,6.81
2019-03-05T06:56:30.256Z,6.83
2019-03-05T06:57:30.267Z,6.83
2019-03-05T06:58:30.278Z,6.8
2019-03-05T06:59:30.246Z,6.78
2019-03-05T07:00:30.237Z,6.77
2019-03-05T07:01:30.245Z,6.77
2019-03-05T07:02:30.227Z,6.75
2019-03-05T07:03:30.256Z,6.75
2019-03-05T07:04:30.235Z,6.75
2019-03-05T07:05:30.233Z,6.75
2019-03-05T07:06:30.234Z,6.78
2019-03-05T07:07:30.230Z,6.73
2019-03-05T07:08:30.300Z,6.75
2019-03-05T07:09:30.208Z,6.77
2019-03-05T07:10:30.347Z,6.74
2019-03-05T07:11:30.213Z,6.74
2019-03-05T07:12:30.222Z,6.75
2019-03-05T07:13:30.223Z,6.77
2019-03-05T07:14:30.259Z,6.77
2019-03-05T07:15:30.272Z,6.77
2019-03-05T07:16:30.210Z,6.78
2019-03-05T07:17:30.220Z,6.77
2019-03-05T07:18:30.242Z,6.78
2019-03-05T07:19:30.225Z,6.78
2019-03-05T07:20:30.209Z,6.81
2019-03-05T07:21:30.189Z,6.81
2019-03-05T07:22:30.211Z,6.83
2019-03-05T07:23:30.206Z,6.81
2019-03-05T07:24:30.205Z,6.84
2019-03-05T07:25:30.231Z,6.84
2019-03-05T07:26:30.196Z,6.84
2019-03-05T07:27:30.297Z,6.83
2019-03-05T07:28:30.241Z,6.81
2019-03-05T07:29:30.588Z,6.85
2019-03-05T07:30:30.587Z,6.83
2019-03-05T07:31:30.311Z,6.87
2019-03-05T07:32:30.201Z,6.83
2019-03-05T07:33:30.198Z,6.85
2019-03-05T07:34:30.206Z,6.87
2019-03-05T07:35:30.184Z,6.87
2019-03-05T07:36:30.183Z,6.85
2019-03-05T07:37:30.193Z,6.87
2019-03-05T07:38:30.203Z,6.88
2019-03-05T07:39:30.189Z,6.88
2019-03-05T07:40:30.189Z,6.9
2019-03-05T07:41:30.187Z,6.92
2019-03-05T07:42:30.224Z,6.92
2019-03-05T07:43:36.973Z,6.92
2019-03-05T07:44:30.175Z,6.94
2019-03-05T07:45:30.194Z,6.91
2019-03-05T07:46:30.213Z,6.92
2019-03-05T07:47:30.173Z,6.95
2019-03-05T07:48:30.182Z,6.96
2019-03-05T07:49:30.172Z,6.95
2019-03-05T07:50:30.172Z,6.94
2019-03-05T07:51:30.538Z,6.95
2019-03-05T07:52:30.157Z,6.94
2019-03-05T07:53:30.171Z,6.95
2019-03-05T07:54:30.173Z,6.96
2019-03-05T07:55:30.164Z,6.99
2019-03-05T07:56:30.168Z,6.99
2019-03-05T07:57:30.158Z,7.01
2019-03-05T07:58:30.165Z,7.02
2019-03-05T07:59:30.168Z,7.02
2019-03-05T08:00:30.243Z,7.06
2019-03-05T08:01:30.201Z,7.08
2019-03-05T08:02:30.161Z,7.11
2019-03-05T08:03:30.164Z,7.12
2019-03-05T08:04:30.144Z,7.16
2019-03-05T08:05:30.164Z,7.22
2019-03-05T08:06:30.168Z,7.27
2019-03-05T08:07:30.161Z,7.33
2019-03-05T08:08:30.172Z,7.39
2019-03-05T08:09:30.153Z,7.44
2019-03-05T08:10:30.186Z,7.5
2019-03-05T08:11:32.042Z,7.51
2019-03-05T08:12:30.188Z,7.54
2019-03-05T08:13:30.199Z,7.54
2019-03-05T08:14:30.160Z,7.57
2019-03-05T08:15:30.125Z,7.57
2019-03-05T08:16:30.128Z,7.62
2019-03-05T08:17:30.207Z,7.61
2019-03-05T08:18:30.179Z,7.65
2019-03-05T08:19:30.138Z,7.67
2019-03-05T08:20:30.129Z,7.69
2019-03-05T08:21:30.124Z,7.67
2019-03-05T08:22:30.198Z,7.72
2019-03-05T08:23:30.121Z,7.75
2019-03-05T08:24:30.130Z,7.81
2019-03-05T08:25:30.142Z,7.86
2019-03-05T08:26:30.163Z,7.91
2019-03-05T08:27:30.110Z,7.95
2019-03-05T08:28:30.107Z,8.02
2019-03-05T08:29:30.114Z,8.06
2019-03-05T08:30:30.120Z,8.1
2019-03-05T08:31:30.106Z,8.16
2019-03-05T08:32:30.123Z,8.17
2019-03-05T08:33:30.131Z,8.19
2019-03-05T08:34:30.586Z,8.19
2019-03-05T08:35:30.124Z,8.23
2019-03-05T08:36:30.190Z,8.29
2019-03-05T08:37:30.106Z,8.3
2019-03-05T08:38:30.135Z,8.3
2019-03-05T08:39:30.157Z,8.31
2019-03-05T08:40:30.124Z,8.3
2019-03-05T08:41:30.414Z,8.34
2019-03-05T08:42:30.114Z,8.31
2019-03-05T08:43:30.095Z,8.3
2019-03-05T08:44:30.152Z,8.3
2019-03-05T08:45:30.108Z,8.27
2019-03-05T08:46:30.123Z,8.26
2019-03-05T08:47:30.158Z,8.24
2019-03-05T08:48:30.154Z,8.23
2019-03-05T08:49:30.096Z,8.23
2019-03-05T08:50:30.097Z,8.23
2019-03-05T08:51:30.141Z,8.23
2019-03-05T08:52:31.215Z,8.21
2019-03-05T08:53:30.079Z,8.26
2019-03-05T08:54:30.078Z,8.21
2019-03-05T08:55:30.174Z,8.21
2019-03-05T08:56:30.095Z,8.21
2019-03-05T08:57:30.082Z,8.21
2019-03-05T08:58:30.082Z,8.2
2019-03-05T08:59:33.151Z,8.2
2019-03-05T09:00:30.132Z,8.19
2019-03-05T09:01:30.070Z,8.14
2019-03-05T09:02:30.069Z,8.14
2019-03-05T09:03:30.068Z,8.16
2019-03-05T09:04:30.057Z,8.16
2019-03-05T09:05:30.073Z,8.17
2019-03-05T09:06:30.070Z,8.16
2019-03-05T09:07:30.056Z,8.19
2019-03-05T09:08:30.076Z,8.16
2019-03-05T09:09:30.072Z,8.17
2019-03-05T09:10:30.056Z,8.16
2019-03-05T09:11:30.056Z,8.13
2019-03-05T09:12:30.072Z,8.16
2019-03-05T09:13:33.411Z,8.17
2019-03-05T09:14:30.033Z,8.19
2019-03-05T09:15:30.197Z,8.2
2019-03-05T09:16:30.073Z,8.2
2019-03-05T09:17:30.144Z,8.2
2019-03-05T09:18:30.175Z,8.23
2019-03-05T09:19:30.029Z,8.23
2019-03-05T09:20:30.038Z,8.21
2019-03-05T09:21:30.034Z,8.2
2019-03-05T09:22:30.057Z,8.19
2019-03-05T09:23:30.057Z,8.21
2019-03-05T09:24:30.045Z,8.17
2019-03-05T09:25:30.074Z,8.14
2019-03-05T09:26:30.048Z,8.13
2019-03-05T09:27:30.018Z,8.14
2019-03-05T09:28:30.021Z,8.1
2019-03-05T09:29:30.039Z,8.12
2019-03-05T09:30:30.051Z,8.06
2019-03-05T09:31:30.116Z,8.05
2019-03-05T09:32:30.065Z,8.03
2019-03-05T09:33:30.040Z,8.02
2019-03-05T09:34:30.026Z,8.01
2019-03-05T09:35:30.020Z,7.99
2019-03-05T09:36:30.018Z,8.01
2019-03-05T09:37:30.033Z,8.02
2019-03-05T09:38:30.009Z,7.99
2019-03-05T09:39:30.190Z,7.92
2019-03-05T09:40:30.036Z,7.91
2019-03-05T09:41:30.027Z,7.92
2019-03-05T09:42:40.380Z,7.88
2019-03-05T09:43:30.022Z,7.91
2019-03-05T09:44:30.014Z,7.84
2019-03-05T09:45:30.022Z,7.81
2019-03-05T09:46:30.004Z,7.72
2019-03-05T09:47:30.019Z,7.65
2019-03-05T09:48:30.007Z,7.59
2019-03-05T09:49:30.029Z,7.58
2019-03-05T09:50:32.568Z,7.53
2019-03-05T09:51:29.994Z,7.47
2019-03-05T09:52:29.995Z,7.37
2019-03-05T09:53:30.019Z,7.36
2019-03-05T09:54:30.003Z,7.31
2019-03-05T09:55:30.017Z,7.31
2019-03-05T09:56:29.985Z,7.29
2019-03-05T09:57:30.000Z,7.24
2019-03-05T09:58:30.013Z,7.29
2019-03-05T09:59:30.006Z,7.24
2019-03-05T10:00:30.190Z,7.18
2019-03-05T10:01:30.055Z,7.11
2019-03-05T10:02:29.988Z,7.02
2019-03-05T10:03:29.984Z,7.05
2019-03-05T10:04:29.970Z,7.09
2019-03-05T10:05:30.016Z,7.01
2019-03-05T10:06:29.991Z,6.94
2019-03-05T10:07:29.990Z,6.95
2019-03-05T10:08:33.209Z,6.98
2019-03-05T10:09:29.975Z,6.98
2019-03-05T10:10:29.964Z,6.98
2019-03-05T10:11:29.982Z,6.95
2019-03-05T10:12:30.389Z,6.99
2019-03-05T10:13:29.985Z,6.95
2019-03-05T10:14:29.964Z,6.99
2019-03-05T10:15:29.962Z,6.95
2019-03-05T10:16:29.954Z,6.95
2019-03-05T10:17:38.416Z,6.98
2019-03-05T10:18:29.986Z,6.94
2019-03-05T10:19:29.964Z,7.01
2019-03-05T10:20:29.964Z,7.02
2019-03-05T10:21:29.949Z,7.06
2019-03-05T10:22:30.491Z,7.05
2019-03-05T10:23:30.130Z,7.06
2019-03-05T10:24:29.957Z,7.06
2019-03-05T10:25:29.993Z,7.12
2019-03-05T10:26:29.999Z,7.11
2019-03-05T10:27:29.931Z,7.06
2019-03-05T10:28:29.942Z,7.03
2019-03-05T10:29:29.980Z,7.05
2019-03-05T10:30:29.967Z,7.08
2019-03-05T10:31:29.959Z,7.11
2019-03-05T10:32:29.948Z,7.09
2019-03-05T10:33:30.023Z,7.13
2019-03-05T10:34:29.938Z,7.12
2019-03-05T10:35:29.956Z,7.12
2019-03-05T10:36:29.918Z,7.12
2019-03-05T10:37:29.939Z,7.16
2019-03-05T10:38:29.935Z,7.16
2019-03-05T10:39:31.558Z,7.16
2019-03-05T10:40:29.938Z,7.19
2019-03-05T10:41:29.936Z,7.2
2019-03-05T10:42:32.198Z,7.23
2019-03-05T10:43:29.950Z,7.27
2019-03-05T10:44:29.921Z,7.27
2019-03-05T10:45:29.930Z,7.29
2019-03-05T10:46:29.941Z,7.31
2019-03-05T10:48:30.729Z,7.36
2019-03-05T10:49:29.943Z,7.36
2019-03-05T10:50:30.046Z,7.37
2019-03-05T10:51:29.915Z,7.37
2019-03-05T10:52:29.917Z,7.41
2019-03-05T10:53:35.967Z,7.4
2019-03-05T10:54:44.310Z,7.4
2019-03-05T10:55:29.908Z,7.4
2019-03-05T10:56:29.909Z,7.43
2019-03-05T10:57:29.931Z,7.43
2019-03-05T10:58:34.659Z,7.44
2019-03-05T10:59:29.908Z,7.44
2019-03-05T11:00:29.901Z,7.47
2019-03-05T11:01:29.910Z,7.44
2019-03-05T11:02:31.797Z,7.44
2019-03-05T11:03:29.938Z,7.4
2019-03-05T11:04:29.925Z,7.43
2019-03-05T11:05:29.938Z,7.46
2019-03-05T11:06:30.186Z,7.48
2019-03-05T11:07:29.899Z,7.47
2019-03-05T11:08:29.905Z,7.46
2019-03-05T11:09:29.901Z,7.47
2019-03-05T11:10:29.900Z,7.46
2019-03-05T11:11:29.943Z,7.47
2019-03-05T11:12:29.884Z,7.47
2019-03-05T11:13:34.422Z,7.5
2019-03-05T11:14:29.914Z,7.46
2019-03-05T11:16:31.410Z,7.48
2019-03-05T11:17:29.894Z,7.47
2019-03-05T11:18:30.329Z,7.46
2019-03-05T11:19:29.923Z,7.44
2019-03-05T11:20:29.919Z,7.47
2019-03-05T11:21:35.836Z,7.48
2019-03-05T11:22:29.885Z,7.5
2019-03-05T11:23:29.887Z,7.48
2019-03-05T11:24:29.879Z,7.46
2019-03-05T11:25:29.900Z,7.47
2019-03-05T11:26:29.953Z,7.48
2019-03-05T11:27:38.004Z,7.47
2019-03-05T11:28:29.884Z,7.46
2019-03-05T11:29:29.919Z,7.44
2019-03-05T11:31:29.932Z,7.44
2019-03-05T11:33:29.882Z,7.39
2019-03-05T11:34:29.853Z,7.37
2019-03-05T11:35:29.858Z,7.31
2019-03-05T11:36:29.845Z,7.33
2019-03-05T11:37:29.858Z,7.33
2019-03-05T11:38:29.852Z,7.31
2019-03-05T11:39:29.842Z,7.33
2019-03-05T11:40:29.847Z,7.33
2019-03-05T11:41:29.830Z,7.3
2019-03-05T11:42:29.846Z,7.24
2019-03-05T11:43:29.845Z,7.23
2019-03-05T11:44:29.844Z,7.24
2019-03-05T11:45:29.830Z,7.23
2019-03-05T11:46:29.833Z,7.2
2019-03-05T11:47:30.095Z,7.2
2019-03-05T11:48:29.954Z,7.19
2019-03-05T11:49:30.137Z,7.22
2019-03-05T11:50:29.831Z,7.22
2019-03-05T11:51:29.826Z,7.2
2019-03-05T11:52:29.845Z,7.2
2019-03-05T11:53:29.856Z,7.18
2019-03-05T11:54:29.834Z,7.16
2019-03-05T11:55:29.842Z,7.2
2019-03-05T11:56:29.843Z,7.22
2019-03-05T11:57:29.826Z,7.22
2019-03-05T11:58:29.835Z,7.23
2019-03-05T11:59:29.813Z,7.24
2019-03-05T12:00:29.822Z,7.27
2019-03-05T12:01:29.806Z,7.27
2019-03-05T12:02:29.823Z,7.29
2019-03-05T12:03:29.819Z,7.31
2019-03-05T12:04:29.823Z,7.34
2019-03-05T12:05:29.813Z,7.37
2019-03-05T12:06:29.814Z,7.39
2019-03-05T12:07:29.816Z,7.41
2019-03-05T12:08:34.958Z,7.46
2019-03-05T12:09:31.517Z,7.48
2019-03-05T12:10:29.974Z,7.44
2019-03-05T12:11:29.835Z,7.48
2019-03-05T12:12:29.787Z,7.5
2019-03-05T12:13:29.803Z,7.5
2019-03-05T12:14:29.807Z,7.51
2019-03-05T12:15:29.803Z,7.53
2019-03-05T12:16:29.806Z,7.53
2019-03-05T12:17:29.805Z,7.53
2019-03-05T12:18:29.812Z,7.55
2019-03-05T12:19:30.904Z,7.57
2019-03-05T12:20:29.797Z,7.58
2019-03-05T12:21:29.791Z,7.59
2019-03-05T12:22:32.698Z,7.55
2019-03-05T12:23:29.827Z,7.57
2019-03-05T12:24:29.802Z,7.62
2019-03-05T12:25:29.802Z,7.62
2019-03-05T12:26:29.780Z,7.64
2019-03-05T12:27:29.781Z,7.65
2019-03-05T12:28:29.809Z,7.67
2019-03-05T12:29:29.813Z,7.68
2019-03-05T12:30:29.784Z,7.65
2019-03-05T12:31:30.138Z,7.67
2019-03-05T12:32:29.970Z,7.68
2019-03-05T12:33:29.781Z,7.67
2019-03-05T12:34:29.796Z,7.69
2019-03-05T12:35:29.786Z,7.65
2019-03-05T12:36:29.789Z,7.67
2019-03-05T12:37:29.784Z,7.65
2019-03-05T12:38:29.783Z,7.67
2019-03-05T12:39:29.766Z,7.65
2019-03-05T12:40:29.777Z,7.65
2019-03-05T12:41:29.752Z,7.67
2019-03-05T12:42:29.771Z,7.67
2019-03-05T12:43:29.774Z,7.62
2019-03-05T12:44:29.759Z,7.61
2019-03-05T12:45:29.807Z,7.64
2019-03-05T12:46:29.754Z,7.61
2019-03-05T12:47:29.761Z,7.64
2019-03-05T12:48:40.684Z,7.62
2019-03-05T12:49:29.768Z,7.65
2019-03-05T12:50:29.748Z,7.61
2019-03-05T12:51:29.756Z,7.59
2019-03-05T12:52:29.752Z,7.61
2019-03-05T12:53:29.811Z,7.62
2019-03-05T12:54:29.762Z,7.59
2019-03-05T12:55:29.840Z,7.58
2019-03-05T12:56:29.753Z,7.59
2019-03-05T12:57:29.762Z,7.57
2019-03-05T12:58:29.742Z,7.61
2019-03-05T12:59:29.781Z,7.59
2019-03-05T13:00:29.736Z,7.57
2019-03-05T13:01:29.751Z,7.58
2019-03-05T13:02:29.720Z,7.58
2019-03-05T13:03:29.740Z,7.58
2019-03-05T13:04:29.742Z,7.57
2019-03-05T13:05:29.731Z,7.59
2019-03-05T13:06:31.632Z,7.57
2019-03-05T13:07:29.708Z,7.59
2019-03-05T13:08:29.719Z,7.55
2019-03-05T13:09:29.726Z,7.58
2019-03-05T13:10:37.713Z,7.58
2019-03-05T13:11:29.728Z,7.59
2019-03-05T13:12:36.919Z,7.58
2019-03-05T13:13:29.726Z,7.53
2019-03-05T13:14:29.720Z,7.53
2019-03-05T13:15:29.755Z,7.5
2019-03-05T13:16:29.984Z,7.54
2019-03-05T13:17:29.724Z,7.53
2019-03-05T13:18:32.516Z,7.51
2019-03-05T13:19:29.720Z,7.51
2019-03-05T13:20:29.700Z,7.5
2019-03-05T13:21:29.721Z,7.46
2019-03-05T13:22:30.162Z,7.44
2019-03-05T13:23:29.697Z,7.44
2019-03-05T13:24:29.706Z,7.46
2019-03-05T13:25:30.105Z,7.46